Time;durP1;ratioP1;P1;durP2;ratioP2;P2;SDS_P1;SDS_P2;PMS_P1;PMS_P2;Temp;Humidity;BMP_temperature;BMP_pressure;BME280_temperature;BME280_humidity;BME280_pressure;Samples;Min_cycle;Max_cycle;Signal;HPM_P1;HPM_P2
2023/06/27 00:00:04;;;;;;;11.05;4.47;;;;;;;15.41;100.00;101754.41;5114327;28;20039;-75
2023/06/27 00:05:51;;;;;;;7.65;4.50;;;;;;;15.52;100.00;101762.81;5114356;28;20497;-75
2023/06/27 00:11:39;;;;;;;9.98;5.18;;;;;;;15.43;100.00;101771.19;5114057;28;20142;-74
2023/06/27 00:20:51;;;;;;;13.68;4.90;;;;;;;15.38;100.00;101757.56;5113740;28;20114;-75
2023/06/27 00:26:38;;;;;;;10.45;4.25;;;;;;;15.31;100.00;101750.56;5113824;28;20197;-75
2023/06/27 00:29:03;;;;;;;11.13;4.47;;;;;;;15.36;100.00;101767.75;5112779;28;20047;-75
2023/06/27 00:34:50;;;;;;;10.52;4.60;;;;;;;15.33;100.00;101767.38;5113839;28;20764;-73
2023/06/27 00:40:36;;;;;;;10.65;4.13;;;;;;;15.32;100.00;101760.31;5113412;28;20407;-74
2023/06/27 00:46:35;;;;;;;11.35;4.60;;;;;;;15.38;100.00;101762.13;5113493;28;20300;-74
2023/06/27 00:49:01;;;;;;;10.07;4.63;;;;;;;15.30;100.00;101757.00;5094401;28;20044;-75
2023/06/27 00:51:27;;;;;;;9.18;4.80;;;;;;;15.27;100.00;101763.66;5094809;28;20020;-75
2023/06/27 00:53:53;;;;;;;12.13;4.47;;;;;;;15.24;100.00;101763.28;5112483;28;20461;-75
2023/06/27 00:59:43;;;;;;;12.52;5.07;;;;;;;15.25;100.00;101760.38;5113657;28;20050;-74
2023/06/27 01:02:08;;;;;;;8.98;4.13;;;;;;;15.27;100.00;101762.84;5094293;28;20527;-75
2023/06/27 01:08:03;;;;;;;9.55;4.82;;;;;;;15.12;100.00;101766.72;5113218;28;20043;-75
2023/06/27 01:13:52;;;;;;;13.38;5.10;;;;;;;15.02;100.00;101754.78;5112622;28;20050;-74
2023/06/27 01:19:44;;;;;;;12.50;5.25;;;;;;;15.08;100.00;101762.84;5113071;28;20612;-74
2023/06/27 01:25:31;;;;;;;10.32;5.00;;;;;;;14.99;100.00;101766.81;5113042;28;20054;-74
2023/06/27 01:27:57;;;;;;;14.10;6.15;;;;;;;14.97;100.00;101770.78;5110733;28;20051;-73
2023/06/27 01:30:22;;;;;;;10.98;4.75;;;;;;;14.94;100.00;101763.97;5112513;28;20026;-74
2023/06/27 01:36:13;;;;;;;14.95;5.07;;;;;;;14.95;100.00;101770.19;5112560;28;20050;-74
2023/06/27 01:42:11;;;;;;;10.60;4.72;;;;;;;14.84;100.00;101771.72;5112685;28;20045;-74
2023/06/27 01:44:38;;;;;;;11.15;4.57;;;;;;;14.80;100.00;101770.53;5112385;28;20038;-73
2023/06/27 01:50:25;;;;;;;12.25;4.60;;;;;;;14.82;100.00;101763.88;5112677;28;20073;-73
2023/06/27 01:56:13;;;;;;;11.40;4.63;;;;;;;14.80;100.00;101749.00;5112747;28;20152;-73
2023/06/27 02:02:00;;;;;;;12.52;5.10;;;;;;;14.79;100.00;101758.09;5112218;28;20495;-74
2023/06/27 02:04:25;;;;;;;12.37;4.60;;;;;;;14.84;100.00;101752.88;5092772;28;20047;-74
2023/06/27 02:06:50;;;;;;;9.38;4.60;;;;;;;14.83;100.00;101748.53;5111941;28;20322;-74
2023/06/27 02:09:16;;;;;;;14.73;4.27;;;;;;;14.83;100.00;101746.69;5111514;28;20187;-73
2023/06/27 02:11:41;;;;;;;8.05;5.25;;;;;;;14.78;100.00;101745.69;5093827;28;20273;-73
2023/06/27 02:14:06;;;;;;;10.93;4.50;;;;;;;14.79;100.00;101742.78;5111111;28;20047;-75
2023/06/27 02:19:53;;;;;;;10.48;5.07;;;;;;;14.84;100.00;101750.19;5112314;28;20563;-74
2023/06/27 02:22:18;;;;;;;11.43;4.68;;;;;;;14.83;100.00;101749.38;5104370;28;20142;-74
2023/06/27 02:24:44;;;;;;;11.93;4.03;;;;;;;14.80;100.00;101738.22;5111887;28;20024;-74
2023/06/27 02:27:09;;;;;;;10.37;5.23;;;;;;;14.78;100.00;101741.13;5111076;28;20839;-74
2023/06/27 02:29:34;;;;;;;11.40;4.70;;;;;;;14.80;100.00;101740.91;5111796;28;20309;-74
2023/06/27 02:31:59;;;;;;;9.33;4.63;;;;;;;14.81;100.00;101740.69;5111782;28;20397;-74
2023/06/27 02:34:25;;;;;;;12.70;4.60;;;;;;;14.78;100.00;101746.50;5096713;28;20312;-74
2023/06/27 02:40:12;;;;;;;10.00;4.40;;;;;;;14.73;100.00;101737.41;5111728;28;20298;-76
2023/06/27 02:49:23;;;;;;;11.43;4.30;;;;;;;14.68;100.00;101729.19;5111823;28;20089;-76
2023/06/27 02:51:49;;;;;;;13.60;5.13;;;;;;;14.64;100.00;101734.19;5111556;28;20035;-76
2023/06/27 02:54:15;;;;;;;8.98;4.53;;;;;;;14.58;100.00;101729.69;5110524;28;20585;-76
2023/06/27 02:56:40;;;;;;;11.82;4.63;;;;;;;14.57;100.00;101728.03;5111567;28;20123;-75
2023/06/27 02:59:05;;;;;;;9.30;4.47;;;;;;;14.56;100.00;101734.47;5093214;28;20020;-76
2023/06/27 03:01:31;;;;;;;9.93;5.07;;;;;;;14.54;100.00;101736.56;5110742;28;20392;-76
2023/06/27 03:07:17;;;;;;;11.88;4.68;;;;;;;14.48;100.00;101743.63;5111645;28;20076;-76
2023/06/27 03:16:26;;;;;;;9.55;5.03;;;;;;;14.43;100.00;101748.81;5113613;28;20042;-76
2023/06/27 03:18:51;;;;;;;11.80;4.40;;;;;;;14.44;100.00;101763.91;5114597;28;20028;-77
2023/06/27 03:21:17;;;;;;;10.50;4.40;;;;;;;14.42;100.00;101749.00;5113834;28;20042;-78
2023/06/27 03:23:42;;;;;;;10.00;4.72;;;;;;;14.43;100.00;101738.06;5114605;28;20365;-78
2023/06/27 03:26:07;;;;;;;13.07;5.23;;;;;;;14.43;100.00;101751.50;5114664;28;20035;-76
2023/06/27 03:28:32;;;;;;;11.02;4.80;;;;;;;14.38;100.00;101742.41;5113679;28;20360;-77
2023/06/27 03:30:58;;;;;;;13.00;4.40;;;;;;;14.36;100.00;101747.19;5114491;28;20468;-77
2023/06/27 03:36:45;;;;;;;12.18;4.60;;;;;;;14.37;100.00;101746.16;5114366;28;20261;-77
2023/06/27 03:39:10;;;;;;;11.40;4.53;;;;;;;14.39;100.00;101736.81;5095789;28;20024;-78
2023/06/27 03:44:57;;;;;;;9.32;4.30;;;;;;;14.44;100.00;101752.34;5114413;28;20376;-78
2023/06/27 03:47:23;;;;;;;12.80;4.43;;;;;;;14.41;100.00;101745.50;5113428;28;20114;-78
2023/06/27 03:53:10;;;;;;;14.57;4.97;;;;;;;14.38;100.00;101754.00;5114311;28;20047;-77
2023/06/27 03:55:37;;;;;;;12.80;5.35;;;;;;;14.42;100.00;101752.53;5095857;28;20020;-78
2023/06/27 03:58:02;;;;;;;10.65;5.53;;;;;;;14.36;100.00;101744.50;5114356;28;20028;-78
2023/06/27 04:03:49;;;;;;;12.90;4.85;;;;;;;14.39;100.00;101762.91;5114003;28;20093;-77
2023/06/27 04:06:15;;;;;;;16.67;5.00;;;;;;;14.35;100.00;101749.06;5113159;28;20492;-78
2023/06/27 04:08:40;;;;;;;13.35;4.82;;;;;;;14.28;100.00;101745.59;5113876;28;20344;-78
2023/06/27 04:14:27;;;;;;;9.27;4.85;;;;;;;14.29;100.00;101759.88;5113973;28;20273;-76
2023/06/27 04:16:53;;;;;;;10.57;5.18;;;;;;;14.29;100.00;101752.63;5095506;28;20351;-76
2023/06/27 04:22:40;;;;;;;12.40;4.70;;;;;;;14.29;100.00;101744.53;5114033;28;20463;-76
2023/06/27 04:25:10;;;;;;;10.97;5.37;;;;;;;14.32;100.00;101749.50;5112811;28;20118;-75
2023/06/27 04:27:35;;;;;;;14.57;4.97;;;;;;;14.23;100.00;101748.09;5094260;28;20266;-76
2023/06/27 04:30:01;;;;;;;11.27;4.78;;;;;;;14.21;100.00;101756.41;5113936;28;20116;-76
2023/06/27 04:32:26;;;;;;;10.80;4.88;;;;;;;14.20;100.00;101752.06;5111644;28;20034;-76
2023/06/27 04:38:14;;;;;;;11.93;5.05;;;;;;;14.26;100.00;101756.56;5113619;28;20273;-76
2023/06/27 04:40:41;;;;;;;15.27;4.80;;;;;;;14.24;100.00;101760.50;5113361;28;20545;-76
2023/06/27 04:46:28;;;;;;;16.83;5.82;;;;;;;14.19;100.00;101763.84;5113518;28;20455;-76
2023/06/27 04:48:58;;;;;;;11.85;5.75;;;;;;;14.20;100.00;101764.69;5094987;28;20047;-77
2023/06/27 04:54:49;;;;;;;10.07;4.85;;;;;;;14.17;100.00;101762.44;5113442;28;20092;-76
2023/06/27 04:57:15;;;;;;;10.98;5.28;;;;;;;14.22;100.00;101763.41;5095925;28;20412;-76
2023/06/27 04:59:41;;;;;;;14.73;5.82;;;;;;;14.30;100.00;101767.72;5094807;28;20492;-77
2023/06/27 05:02:07;;;;;;;13.95;5.40;;;;;;;14.44;100.00;101773.88;5113114;28;20038;-77
2023/06/27 05:04:33;;;;;;;15.25;5.85;;;;;;;14.66;100.00;101775.16;5097988;28;20046;-77
2023/06/27 05:06:58;;;;;;;14.30;5.65;;;;;;;14.91;100.00;101771.69;5112955;28;20032;-77
2023/06/27 05:12:45;;;;;;;10.27;5.47;;;;;;;15.58;100.00;101783.47;5113012;28;20760;-74
2023/06/27 05:15:10;;;;;;;10.07;4.80;;;;;;;15.82;100.00;101776.38;5111572;28;20055;-77
2023/06/27 05:17:35;;;;;;;12.57;5.70;;;;;;;16.20;100.00;101781.53;5112114;28;20365;-77
2023/06/27 05:23:22;;;;;;;10.95;4.93;;;;;;;17.30;100.00;101777.31;5111960;28;20625;-77
2023/06/27 05:25:49;;;;;;;12.18;5.32;;;;;;;17.77;100.00;101781.88;5094380;28;20485;-77
2023/06/27 05:31:36;;;;;;;12.05;5.82;;;;;;;18.90;100.00;101774.78;5112916;28;20077;-74
2023/06/27 05:37:23;;;;;;;13.93;5.20;;;;;;;19.94;99.00;101781.16;5112824;28;20046;-75
2023/06/27 05:39:48;;;;;;;13.70;4.50;;;;;;;20.25;97.17;101776.94;5112311;28;20012;-74
2023/06/27 05:45:35;;;;;;;10.63;5.13;;;;;;;20.93;92.81;101767.25;5112488;28;20268;-74
2023/06/27 05:48:00;;;;;;;16.60;5.40;;;;;;;21.19;91.16;101776.41;5094038;28;20031;-72
2023/06/27 05:50:27;;;;;;;20.03;5.33;;;;;;;21.18;90.46;101774.78;5111632;28;20039;-72
2023/06/27 05:52:52;;;;;;;13.65;5.60;;;;;;;21.49;89.90;101774.97;5112224;28;20030;-73
2023/06/27 05:58:39;;;;;;;14.05;5.30;;;;;;;22.32;86.22;101775.88;5112505;28;20629;-73
2023/06/27 06:01:05;;;;;;;11.00;5.22;;;;;;;22.74;82.64;101783.81;5110934;28;20110;-73
2023/06/27 06:06:52;;;;;;;16.17;6.03;;;;;;;23.25;79.39;101780.25;5112198;28;20486;-72
2023/06/27 06:16:32;;;;;;;12.27;5.57;;;;;;;24.37;77.74;101780.66;5112232;28;20141;-73
2023/06/27 06:18:58;;;;;;;12.68;5.25;;;;;;;24.51;75.22;101780.84;5111933;28;20099;-73
2023/06/27 06:24:44;;;;;;;13.15;6.25;;;;;;;24.95;72.05;101789.78;5112096;28;20050;-73
2023/06/27 06:30:31;;;;;;;16.02;5.75;;;;;;;25.72;69.87;101789.84;5112182;28;20050;-73
2023/06/27 06:36:19;;;;;;;11.30;5.82;;;;;;;26.67;65.76;101799.78;5111673;28;20664;-73
2023/06/27 06:42:06;;;;;;;15.02;5.07;;;;;;;27.29;62.56;101805.88;5112043;28;20047;-73
2023/06/27 06:47:54;;;;;;;11.60;5.00;;;;;;;27.61;59.55;101805.00;5111697;28;20050;-73
2023/06/27 06:53:41;;;;;;;14.48;5.90;;;;;;;27.95;58.35;101804.59;5114713;28;20126;-75
2023/06/27 06:59:28;;;;;;;12.98;4.90;;;;;;;27.90;56.29;101818.44;5115105;28;20066;-74
2023/06/27 07:05:15;;;;;;;17.17;5.15;;;;;;;28.79;55.01;101812.31;5115169;28;20514;-73
2023/06/27 07:07:41;;;;;;;11.00;4.73;;;;;;;28.86;52.51;101804.44;5099927;28;20044;-73
2023/06/27 07:13:27;;;;;;;12.02;4.35;;;;;;;30.29;48.72;101812.31;5114249;28;20081;-75
2023/06/27 07:19:14;;;;;;;10.18;4.55;;;;;;;29.71;48.63;101827.25;5114794;28;20045;-75
2023/06/27 07:21:40;;;;;;;10.17;4.63;;;;;;;28.70;51.26;101819.69;5112820;28;20043;-74
2023/06/27 07:27:27;;;;;;;17.67;4.50;;;;;;;27.22;55.72;101812.91;5114776;28;20050;-73
2023/06/27 07:33:14;;;;;;;14.90;4.28;;;;;;;26.25;58.88;101812.44;5114615;28;20062;-75
2023/06/27 07:39:01;;;;;;;13.18;4.32;;;;;;;26.86;56.75;101810.72;5114451;28;20264;-73
2023/06/27 07:44:48;;;;;;;10.13;3.10;;;;;;;25.41;58.40;101813.19;5114904;28;20284;-75
2023/06/27 07:50:35;;;;;;;5.95;2.60;;;;;;;25.04;58.67;101802.88;5114698;28;20439;-73
2023/06/27 07:56:22;;;;;;;7.80;2.58;;;;;;;24.61;57.05;101805.41;5114866;28;20284;-79
2023/06/27 08:02:09;;;;;;;5.75;2.30;;;;;;;24.49;57.78;101799.44;5113110;28;20042;-75
2023/06/27 08:11:18;;;;;;;7.05;2.22;;;;;;;25.28;54.15;101803.75;5114498;28;20435;-77
2023/06/27 08:17:05;;;;;;;6.15;2.25;;;;;;;25.91;52.44;101812.63;5114273;28;20269;-77
2023/06/27 08:22:52;;;;;;;5.68;2.20;;;;;;;26.00;50.55;101801.81;5114268;28;20093;-74
2023/06/27 08:28:39;;;;;;;5.95;1.90;;;;;;;25.58;53.10;101803.41;5113551;28;20034;-74
2023/06/27 08:34:29;;;;;;;6.22;2.28;;;;;;;25.30;54.30;101796.88;5113349;28;20057;-75
2023/06/27 08:40:24;;;;;;;9.27;2.90;;;;;;;24.36;57.36;101793.53;5113673;28;20058;-71
2023/06/27 08:46:11;;;;;;;10.38;2.80;;;;;;;24.15;61.06;101785.69;5112776;28;20146;-72
2023/06/27 08:52:01;;;;;;;10.20;2.97;;;;;;;23.92;57.88;101782.50;5113262;28;20132;-68
2023/06/27 08:57:49;;;;;;;4.13;2.00;;;;;;;23.33;63.69;101788.69;5113185;28;20031;-68
2023/06/27 09:03:36;;;;;;;9.75;2.80;;;;;;;23.57;63.61;101788.94;5113440;28;20054;-70
2023/06/27 09:09:23;;;;;;;35.35;5.40;;;;;;;23.73;62.09;101776.06;5113017;28;20047;-69
2023/06/27 09:15:11;;;;;;;6.80;2.78;;;;;;;24.27;59.98;101788.88;5112943;28;20046;-69
2023/06/27 09:20:58;;;;;;;4.35;1.98;;;;;;;23.96;56.90;101777.31;5113092;28;20522;-70
2023/06/27 09:26:45;;;;;;;6.97;2.88;;;;;;;23.68;57.79;101781.53;5112654;28;20362;-69
2023/06/27 09:32:31;;;;;;;5.93;2.38;;;;;;;24.12;57.42;101791.72;5112502;28;20319;-71
2023/06/27 09:38:18;;;;;;;5.65;2.70;;;;;;;23.95;54.90;101789.34;5112528;28;20356;-71
2023/06/27 09:44:19;;;;;;;16.08;2.15;;;;;;;23.98;55.19;101797.78;5112809;28;20122;-70
2023/06/27 09:50:07;;;;;;;6.57;2.20;;;;;;;24.45;52.03;101795.66;5112683;28;20535;-70
2023/06/27 09:56:00;;;;;;;3.53;2.08;;;;;;;25.22;53.77;101810.38;5112485;28;20438;-71
2023/06/27 10:01:49;;;;;;;4.03;1.88;;;;;;;25.99;46.83;101796.63;5112322;28;20453;-72
2023/06/27 10:07:38;;;;;;;7.13;2.00;;;;;;;25.51;44.97;101800.22;5112468;28;20176;-71
2023/06/27 10:13:25;;;;;;;4.82;2.08;;;;;;;24.32;50.58;101792.47;5111993;28;20441;-72
2023/06/27 10:19:13;;;;;;;6.53;1.92;;;;;;;25.88;46.95;101796.78;5112245;28;20445;-71
2023/06/27 10:25:03;;;;;;;5.75;1.55;;;;;;;25.33;46.89;101809.97;5112392;28;20046;-69
2023/06/27 10:30:49;;;;;;;2.97;1.42;;;;;;;24.89;44.86;101809.28;5115443;28;20047;-71
2023/06/27 10:36:54;;;;;;;4.20;1.98;;;;;;;26.34;46.17;101807.16;5115407;28;20268;-69
2023/06/27 10:42:41;;;;;;;4.90;1.90;;;;;;;26.66;40.01;101778.94;5115709;28;20185;-69
2023/06/27 10:48:28;;;;;;;4.25;1.73;;;;;;;25.66;42.83;101793.72;5115248;28;20353;-71
2023/06/27 10:54:16;;;;;;;3.63;1.42;;;;;;;26.35;41.18;101792.34;5115173;28;20047;-72
2023/06/27 11:00:23;;;;;;;4.40;1.52;;;;;;;26.25;41.76;101785.03;5115228;28;20046;-73
2023/06/27 11:06:09;;;;;;;4.13;1.77;;;;;;;26.03;43.29;101784.00;5115205;28;20061;-71
2023/06/27 11:12:15;;;;;;;4.13;1.77;;;;;;;25.40;44.10;101784.97;5114873;28;20649;-71
2023/06/27 11:18:04;;;;;;;2.00;1.50;;;;;;;26.15;43.78;101790.66;5115046;28;20349;-72
2023/06/27 11:23:55;;;;;;;4.70;2.00;;;;;;;26.35;40.87;101789.59;5114764;28;20042;-72
2023/06/27 11:29:43;;;;;;;3.38;1.77;;;;;;;25.54;43.79;101791.41;5114942;28;20131;-71
2023/06/27 11:35:31;;;;;;;4.35;1.70;;;;;;;25.89;41.40;101794.84;5114781;28;20142;-71
2023/06/27 11:41:22;;;;;;;5.95;1.50;;;;;;;25.56;41.04;101793.84;5114728;28;20391;-72
2023/06/27 11:47:08;;;;;;;5.20;1.70;;;;;;;26.18;41.16;101797.47;5114743;28;20544;-69
2023/06/27 11:56:21;;;;;;;3.60;1.63;;;;;;;27.65;38.82;101791.47;5114594;28;20443;-73
2023/06/27 12:02:09;;;;;;;5.13;1.58;;;;;;;27.66;37.73;101784.84;5114267;28;20109;-73
2023/06/27 12:08:10;;;;;;;7.13;1.98;;;;;;;27.00;38.73;101789.66;5114068;28;20085;-74
2023/06/27 12:13:57;;;;;;;4.45;1.90;;;;;;;25.91;42.90;101787.97;5113987;28;20518;-73
2023/06/27 12:19:48;;;;;;;3.03;1.60;;;;;;;25.98;44.54;101779.38;5114014;28;20273;-73
2023/06/27 12:25:39;;;;;;;3.63;1.60;;;;;;;25.67;42.59;101775.41;5114010;28;20545;-75
2023/06/27 12:31:27;;;;;;;5.78;2.00;;;;;;;26.16;45.19;101773.09;5114028;28;20088;-72
2023/06/27 12:37:14;;;;;;;5.60;1.75;;;;;;;26.24;45.58;101761.44;5113587;28;20088;-72
2023/06/27 12:43:03;;;;;;;7.40;2.10;;;;;;;25.68;43.44;101746.88;5113768;28;20053;-73
2023/06/27 12:48:50;;;;;;;3.22;1.90;;;;;;;24.08;48.17;101753.22;5112644;28;20453;-72
2023/06/27 12:54:36;;;;;;;4.38;1.90;;;;;;;25.00;47.00;101753.38;5113241;28;20046;-74
2023/06/27 13:00:23;;;;;;;3.67;1.70;;;;;;;24.91;46.78;101746.88;5112439;28;20400;-73
2023/06/27 13:06:10;;;;;;;4.20;1.77;;;;;;;24.91;48.28;101747.69;5112390;28;20307;-71
2023/06/27 13:11:57;;;;;;;5.85;2.05;;;;;;;24.75;48.74;101746.19;5113120;28;20414;-75
2023/06/27 13:17:45;;;;;;;7.50;2.47;;;;;;;25.10;49.42;101739.56;5113124;28;20268;-74
2023/06/27 13:23:32;;;;;;;12.05;2.42;;;;;;;25.44;46.12;101749.59;5113118;28;20452;-75
2023/06/27 13:29:19;;;;;;;7.22;2.33;;;;;;;25.48;45.94;101740.53;5112715;28;20322;-79
2023/06/27 13:35:06;;;;;;;3.88;1.65;;;;;;;25.10;46.60;101739.56;5112628;28;20046;-79
2023/06/27 13:40:53;;;;;;;3.35;1.98;;;;;;;24.50;48.80;101749.94;5113090;28;20110;-78
2023/06/27 13:46:40;;;;;;;8.02;1.92;;;;;;;24.52;49.28;101734.06;5112486;28;20035;-77
2023/06/27 13:52:26;;;;;;;4.88;2.30;;;;;;;24.86;48.19;101731.28;5112554;28;20799;-79
2023/06/27 13:58:14;;;;;;;5.28;2.10;;;;;;;24.92;47.21;101730.16;5112793;28;20034;-77
2023/06/27 14:04:03;;;;;;;8.70;2.05;;;;;;;25.00;48.10;101717.78;5112274;28;20038;-78
2023/06/27 14:09:50;;;;;;;5.40;2.47;;;;;;;24.57;47.74;101714.03;5112240;28;20137;-81
2023/06/27 14:15:37;;;;;;;5.45;2.03;;;;;;;24.65;47.68;101716.19;5112134;28;20092;-79
2023/06/27 14:21:27;;;;;;;4.78;1.70;;;;;;;24.67;48.63;101713.97;5111961;28;20388;-78
2023/06/27 14:27:15;;;;;;;6.93;2.55;;;;;;;24.43;47.32;101705.69;5112077;28;20047;-77
2023/06/27 14:33:02;;;;;;;3.38;1.90;;;;;;;24.97;47.62;101721.88;5112029;28;20119;-77
2023/06/27 14:38:49;;;;;;;6.03;1.90;;;;;;;24.98;47.43;101711.75;5112136;28;20050;-79
2023/06/27 14:44:36;;;;;;;3.97;1.90;;;;;;;24.42;48.35;101687.66;5111750;28;20112;-79
2023/06/27 14:50:23;;;;;;;8.15;1.98;;;;;;;24.28;50.11;101698.41;5111905;28;20271;-77
2023/06/27 14:56:10;;;;;;;5.57;1.75;;;;;;;24.22;52.00;101694.06;5112105;28;20130;-77
2023/06/27 15:01:57;;;;;;;6.10;1.90;;;;;;;23.96;51.67;101692.59;5111765;28;20092;-76
2023/06/27 15:07:44;;;;;;;4.13;1.83;;;;;;;24.28;49.86;101695.69;5111494;28;20037;-79
2023/06/27 15:13:31;;;;;;;3.47;1.75;;;;;;;24.28;50.28;101679.28;5114912;28;20089;-77
2023/06/27 15:19:18;;;;;;;5.38;1.90;;;;;;;24.02;50.95;101658.69;5115198;28;20327;-80
2023/06/27 15:25:05;;;;;;;2.80;1.58;;;;;;;24.23;47.77;101684.75;5115002;28;20315;-77
2023/06/27 15:30:52;;;;;;;4.53;2.05;;;;;;;23.93;48.12;101657.66;5114838;28;20070;-79
2023/06/27 15:36:39;;;;;;;4.28;1.60;;;;;;;23.63;49.31;101664.94;5114609;28;20314;-78
2023/06/27 15:42:26;;;;;;;5.93;1.80;;;;;;;23.37;48.64;101661.47;5114353;28;20443;-76
2023/06/27 15:48:13;;;;;;;5.60;2.33;;;;;;;23.58;51.67;101664.97;5115044;28;20046;-77
2023/06/27 15:54:01;;;;;;;4.28;1.85;;;;;;;23.66;49.79;101661.63;5114894;28;20396;-81
2023/06/27 15:59:47;;;;;;;7.22;1.80;;;;;;;23.86;47.20;101657.16;5114866;28;20449;-80
2023/06/27 16:05:34;;;;;;;6.13;1.92;;;;;;;23.43;48.63;101644.00;5114644;28;20047;-82
2023/06/27 16:11:21;;;;;;;6.15;1.80;;;;;;;23.12;50.45;101658.84;5110246;28;20292;-77
2023/06/27 16:17:09;;;;;;;3.40;1.70;;;;;;;22.95;49.79;101631.91;5115484;28;20268;-81
2023/06/27 16:22:56;;;;;;;5.43;2.00;;;;;;;22.91;48.50;101643.63;5113765;28;20043;-78
2023/06/27 16:28:43;;;;;;;6.80;2.00;;;;;;;22.84;49.65;101641.19;5113754;28;20038;-79
2023/06/27 16:34:30;;;;;;;4.28;1.80;;;;;;;23.10;49.01;101645.47;5113696;28;20293;-78
2023/06/27 16:40:17;;;;;;;4.22;1.80;;;;;;;23.04;48.35;101645.78;5113774;28;20051;-79
2023/06/27 16:46:04;;;;;;;3.28;1.70;;;;;;;23.00;49.97;101642.78;5113744;28;20076;-77
2023/06/27 16:51:51;;;;;;;4.20;1.55;;;;;;;22.56;48.09;101659.75;5114500;28;20293;-80
2023/06/27 16:57:37;;;;;;;2.60;1.40;;;;;;;22.48;49.58;101665.75;5113395;28;20852;-78
2023/06/27 17:03:24;;;;;;;3.25;1.80;;;;;;;22.39;49.89;101675.56;5113696;28;20081;-77
2023/06/27 17:09:11;;;;;;;46.63;5.78;;;;;;;22.12;49.59;101672.28;5113716;28;20273;-76
2023/06/27 17:14:58;;;;;;;6.78;1.80;;;;;;;21.94;49.65;101659.97;5113413;28;20089;-77
2023/06/27 17:20:45;;;;;;;3.17;1.65;;;;;;;21.94;49.10;101644.44;5115288;28;20764;-80
2023/06/27 17:26:32;;;;;;;3.05;1.30;;;;;;;21.77;50.07;101638.44;5113150;28;20070;-82
2023/06/27 17:32:20;;;;;;;6.80;1.95;;;;;;;22.05;51.00;101641.78;5112850;28;20780;-78
2023/06/27 17:38:07;;;;;;;4.15;1.75;;;;;;;22.10;51.52;101647.22;5112962;28;20043;-76
2023/06/27 17:43:54;;;;;;;3.13;1.50;;;;;;;21.88;50.14;101640.06;5112652;28;20277;-78
2023/06/27 17:49:41;;;;;;;4.85;2.03;;;;;;;21.61;52.17;101648.44;5113474;28;20132;-77
2023/06/27 17:55:28;;;;;;;4.07;1.77;;;;;;;21.43;52.33;101653.59;5113146;28;20074;-78
2023/06/27 18:01:15;;;;;;;6.07;2.08;;;;;;;21.34;53.90;101656.78;5112462;28;20039;-79
2023/06/27 18:07:03;;;;;;;5.50;2.20;;;;;;;21.41;54.12;101672.09;5112390;28;20365;-77
2023/06/27 18:12:52;;;;;;;4.05;2.08;;;;;;;21.27;54.93;101680.72;5112278;28;20051;-79
2023/06/27 18:18:39;;;;;;;21.08;2.92;;;;;;;21.13;55.73;101676.00;5112323;28;20099;-77
2023/06/27 18:24:26;;;;;;;11.65;2.58;;;;;;;20.98;57.68;101674.81;5111532;28;20264;-80
2023/06/27 18:30:13;;;;;;;4.57;2.00;;;;;;;20.75;56.90;101686.06;5112145;28;20046;-78
2023/06/27 18:36:02;;;;;;;5.55;2.22;;;;;;;20.57;56.79;101683.78;5112177;28;20050;-79
2023/06/27 18:41:50;;;;;;;4.32;2.03;;;;;;;20.59;59.56;101690.59;5112067;28;20042;-78
2023/06/27 18:47:37;;;;;;;9.73;2.60;;;;;;;20.44;60.07;101697.78;5114354;28;20100;-79
2023/06/27 18:53:24;;;;;;;5.30;2.05;;;;;;;20.35;61.70;101698.25;5115504;28;20092;-79
2023/06/27 18:59:10;;;;;;;5.30;1.83;;;;;;;20.32;62.28;101682.47;5115325;28;20712;-77
2023/06/27 19:01:36;;;;;;;6.47;2.00;;;;;;;20.31;61.55;101686.25;5113954;28;20052;-77
2023/06/27 19:04:02;;;;;;;8.43;2.33;;;;;;;20.25;60.61;101679.16;5114553;28;20089;-76
2023/06/27 19:09:49;;;;;;;4.22;1.95;;;;;;;20.11;61.42;101681.44;5115283;28;20400;-77
2023/06/27 19:15:36;;;;;;;5.53;2.08;;;;;;;19.85;62.83;101684.97;5114967;28;20096;-76
2023/06/27 19:21:23;;;;;;;3.72;1.77;;;;;;;19.66;64.75;101680.94;5115056;28;20099;-78
2023/06/27 19:23:48;;;;;;;6.37;2.00;;;;;;;19.71;65.85;101683.75;5113891;28;20114;-75
2023/06/27 19:29:36;;;;;;;7.30;2.13;;;;;;;19.59;70.96;101711.00;5113979;28;20082;-76
2023/06/27 19:35:22;;;;;;;5.40;2.03;;;;;;;18.97;76.51;101699.56;5114965;28;20091;-76
2023/06/27 19:44:31;;;;;;;7.93;2.00;;;;;;;18.48;79.71;101704.69;5114516;28;20070;-79
2023/06/27 19:50:18;;;;;;;4.80;2.20;;;;;;;18.18;82.25;101700.41;5114541;28;20268;-79
2023/06/27 19:56:06;;;;;;;6.38;2.33;;;;;;;18.00;88.49;101703.31;5114731;28;20058;-78
2023/06/27 20:01:53;;;;;;;6.93;2.30;;;;;;;17.95;86.67;101700.53;5114109;28;20089;-78
2023/06/27 20:07:40;;;;;;;4.82;2.15;;;;;;;18.08;86.76;101715.66;5114658;28;20047;-78
2023/06/27 20:13:31;;;;;;;5.65;2.20;;;;;;;18.04;85.60;101709.91;5113983;28;20292;-76
2023/06/27 20:19:18;;;;;;;8.05;2.33;;;;;;;17.95;86.58;101695.13;5114095;28;20096;-78
2023/06/27 20:25:05;;;;;;;4.88;2.03;;;;;;;17.92;86.01;101693.69;5113758;28;20272;-76
2023/06/27 20:30:52;;;;;;;13.45;2.55;;;;;;;17.86;87.93;101696.53;5113909;28;20173;-77
2023/06/27 20:36:39;;;;;;;5.00;2.22;;;;;;;17.85;90.87;101692.19;5113698;28;20780;-76
2023/06/27 20:42:26;;;;;;;7.55;2.50;;;;;;;17.85;94.37;101703.03;5113558;28;20657;-77
2023/06/27 20:48:12;;;;;;;4.78;2.25;;;;;;;17.66;95.16;101715.91;5113581;28;20637;-77
2023/06/27 20:54:00;;;;;;;5.72;2.33;;;;;;;17.26;98.86;101707.72;5113341;28;20292;-75
2023/06/27 20:59:47;;;;;;;8.93;2.42;;;;;;;17.05;100.00;101714.53;5108736;28;20042;-77
2023/06/27 21:02:14;;;;;;;5.87;2.67;;;;;;;16.93;100.00;101709.16;5111905;28;20036;-78
2023/06/27 21:08:01;;;;;;;7.28;2.70;;;;;;;16.75;100.00;101709.25;5113510;28;20100;-80
2023/06/27 21:13:49;;;;;;;6.05;2.90;;;;;;;16.39;100.00;101724.53;5113562;28;20042;-79
2023/06/27 21:19:36;;;;;;;10.20;2.85;;;;;;;16.06;100.00;101713.41;5113517;28;20143;-79
2023/06/27 21:25:23;;;;;;;7.20;2.60;;;;;;;15.97;100.00;101720.19;5112989;28;20641;-83
2023/06/27 21:31:10;;;;;;;6.53;2.90;;;;;;;15.86;100.00;101723.63;5113142;28;20319;-80
2023/06/27 21:33:36;;;;;;;7.18;3.00;;;;;;;15.78;100.00;101716.69;5112859;28;20024;-82
2023/06/27 21:39:23;;;;;;;8.18;3.03;;;;;;;15.64;100.00;101720.63;5112850;28;20046;-79
2023/06/27 21:45:10;;;;;;;6.57;3.20;;;;;;;15.50;100.00;101709.13;5112951;28;20041;-79
2023/06/27 21:50:57;;;;;;;8.43;3.33;;;;;;;15.38;100.00;101697.44;5113115;28;20101;-78
2023/06/27 21:56:44;;;;;;;8.90;3.08;;;;;;;15.37;100.00;101698.50;5112480;28;20325;-77
2023/06/27 22:02:31;;;;;;;10.25;3.33;;;;;;;15.34;100.00;101688.16;5112610;28;20271;-75
2023/06/27 22:08:18;;;;;;;6.38;3.63;;;;;;;15.29;100.00;101685.28;5112813;28;20046;-80
2023/06/27 22:17:32;;;;;;;8.35;3.25;;;;;;;15.28;100.00;101683.66;5112378;28;20039;-79
2023/06/27 22:19:58;;;;;;;6.13;3.08;;;;;;;15.29;100.00;101691.50;5097030;28;20039;-80
2023/06/27 22:22:24;;;;;;;8.23;3.78;;;;;;;15.25;100.00;101694.88;5092785;28;20062;-82
2023/06/27 22:28:11;;;;;;;8.88;4.20;;;;;;;15.13;100.00;101681.34;5112471;28;20054;-80
2023/06/27 22:37:47;;;;;;;6.22;3.50;;;;;;;15.13;100.00;101684.84;5112307;28;20104;-78
2023/06/27 22:40:13;;;;;;;6.70;4.07;;;;;;;15.07;100.00;101676.84;5094140;28;20028;-80
2023/06/27 22:42:38;;;;;;;7.63;4.10;;;;;;;15.12;100.00;101685.91;5111868;28;20422;-80
2023/06/27 22:45:05;;;;;;;9.07;4.75;;;;;;;15.06;100.00;101676.03;5111140;28;20480;-80
2023/06/27 22:47:31;;;;;;;9.27;4.40;;;;;;;14.99;100.00;101669.88;5111885;28;20059;-80
2023/06/27 22:49:56;;;;;;;7.15;4.20;;;;;;;15.02;100.00;101682.06;5093144;28;20495;-79
2023/06/27 22:52:28;;;;;;;7.30;3.92;;;;;;;15.03;100.00;101676.44;5111947;28;20039;-82
2023/06/27 23:02:33;;;;;;;6.25;3.85;;;;;;;15.01;100.00;101686.63;5112164;28;20597;-79
2023/06/27 23:04:58;;;;;;;7.50;3.83;;;;;;;14.92;100.00;101673.69;5111589;28;20066;-80
2023/06/27 23:10:45;;;;;;;9.95;4.07;;;;;;;14.96;100.00;101664.09;5111564;28;20304;-79